createdAt,value
2022-08-26T00:04:47.889Z,277.87
2022-08-26T00:14:52.680Z,276.23
2022-08-26T00:24:56.058Z,267.93
2022-08-26T00:35:00.840Z,243.83
2022-08-26T00:45:11.632Z,250.00
2022-08-26T00:55:21.017Z,243.60
2022-08-26T01:05:25.774Z,241.80
2022-08-26T01:15:35.894Z,238.40
2022-08-26T01:25:45.349Z,247.07
2022-08-26T01:35:49.159Z,241.77
2022-08-26T01:45:56.999Z,242.33
2022-08-26T01:56:03.672Z,241.73
2022-08-26T02:06:10.277Z,236.27
2022-08-26T02:16:17.161Z,241.27
2022-08-26T02:26:27.088Z,239.80
2022-08-26T02:36:30.598Z,243.60
2022-08-26T02:46:35.437Z,236.50
2022-08-26T02:56:41.082Z,234.37
2022-08-26T03:06:52.649Z,238.00
2022-08-26T03:16:56.426Z,231.23
2022-08-26T03:27:01.959Z,233.60
2022-08-26T03:37:09.640Z,235.00
2022-08-26T03:47:14.639Z,229.03
2022-08-26T03:57:18.061Z,235.33
2022-08-26T04:07:26.088Z,239.63
2022-08-26T04:17:29.712Z,231.07
2022-08-26T04:27:34.482Z,234.90
2022-08-26T04:37:38.032Z,230.30
2022-08-26T04:47:42.853Z,238.73
2022-08-26T04:57:46.797Z,247.77
2022-08-26T05:07:51.781Z,232.87
2022-08-26T05:17:55.846Z,239.60
2022-08-26T05:28:01.281Z,236.33
2022-08-26T05:38:12.408Z,240.77
2022-08-26T05:48:22.846Z,236.87
2022-08-26T05:58:28.656Z,238.77
2022-08-26T06:08:34.385Z,236.13
2022-08-26T06:18:41.221Z,242.33
2022-08-26T06:28:46.118Z,239.37
2022-08-26T06:38:51.865Z,239.53
2022-08-26T06:48:58.537Z,252.23
2022-08-26T06:59:01.992Z,234.00
2022-08-26T07:09:09.764Z,235.20
2022-08-26T07:19:13.599Z,237.47
2022-08-26T07:29:18.494Z,234.65
2022-08-26T07:39:22.692Z,231.90
2022-08-26T07:49:28.190Z,224.20
2022-08-26T07:59:31.660Z,232.95
2022-08-26T08:09:36.938Z,229.30
2022-08-26T08:19:44.393Z,232.48
2022-08-26T08:29:50.114Z,228.35
2022-08-26T08:39:53.510Z,250.60
2022-08-26T08:50:03.224Z,250.55
2022-08-26T09:00:13.082Z,211.25
2022-08-26T09:10:36.109Z,214.60
2022-08-26T09:20:52.131Z,230.93
2022-08-26T09:31:11.771Z,260.75
2022-08-26T09:41:31.650Z,250.88
2022-08-26T09:51:36.431Z,257.02
2022-08-26T10:01:43.600Z,263.80
2022-08-26T10:11:54.353Z,258.17
2022-08-26T10:22:04.217Z,245.63
2022-08-26T10:32:17.260Z,240.07
2022-08-26T10:42:28.874Z,245.82
2022-08-26T10:52:51.564Z,243.35
2022-08-26T11:03:04.254Z,241.55
2022-08-26T11:13:09.358Z,249.02
2022-08-26T11:23:41.698Z,259.10
2022-08-26T11:33:51.863Z,242.13
2022-08-26T11:43:55.440Z,248.27
2022-08-26T11:54:17.214Z,252.98
2022-08-26T12:04:39.029Z,235.43
2022-08-26T12:14:44.226Z,243.85
2022-08-26T12:24:51.492Z,254.52
2022-08-26T12:34:56.360Z,233.65
2022-08-26T12:45:03.901Z,250.05
2022-08-26T12:55:23.921Z,240.98
2022-08-26T13:05:33.050Z,251.75
2022-08-26T13:15:37.930Z,259.08
2022-08-26T13:25:41.438Z,263.83
2022-08-26T13:35:46.227Z,272.95
2022-08-26T13:45:49.598Z,262.27
2022-08-26T13:55:54.548Z,267.38
2022-08-26T14:05:57.945Z,275.80
2022-08-26T14:16:04.439Z,282.75
2022-08-26T14:26:10.991Z,287.17
2022-08-26T14:36:29.623Z,291.20
2022-08-26T14:46:39.165Z,290.13
2022-08-26T14:56:50.257Z,296.27
2022-08-26T15:06:58.734Z,237.93
2022-08-26T15:17:03.801Z,235.50
2022-08-26T15:27:08.438Z,225.57
2022-08-26T15:37:25.632Z,225.55
2022-08-26T15:47:28.945Z,224.57
2022-08-26T15:57:34.349Z,227.05
2022-08-26T16:07:37.690Z,219.93
2022-08-26T16:17:43.658Z,225.50
2022-08-26T16:27:47.017Z,226.27
2022-08-26T16:37:53.028Z,223.10
2022-08-26T16:47:56.609Z,229.68
2022-08-26T16:58:01.321Z,229.10
2022-08-26T17:08:06.239Z,231.55
2022-08-26T17:18:11.292Z,227.10
2022-08-26T17:28:15.603Z,239.80
2022-08-26T17:38:20.808Z,234.57
2022-08-26T17:48:24.250Z,258.53
2022-08-26T17:58:31.289Z,262.20
2022-08-26T18:08:38.909Z,256.40
2022-08-26T18:18:43.761Z,262.77
2022-08-26T18:28:47.248Z,260.77
2022-08-26T18:38:53.405Z,262.97
2022-08-26T18:48:57.982Z,271.20
2022-08-26T18:59:03.552Z,264.10
2022-08-26T19:09:10.859Z,262.33
2022-08-26T19:19:17.616Z,272.77
2022-08-26T19:29:23.610Z,276.60
2022-08-26T19:39:29.034Z,274.97
2022-08-26T19:49:33.057Z,258.00
2022-08-26T19:59:38.201Z,259.37
2022-08-26T20:09:42.683Z,267.43
2022-08-26T20:20:05.411Z,274.73
2022-08-26T20:30:12.279Z,277.17
2022-08-26T20:40:17.487Z,241.07
2022-08-26T20:50:21.079Z,240.73
2022-08-26T21:00:27.061Z,249.70
2022-08-26T21:10:32.986Z,243.83
2022-08-26T21:20:38.279Z,246.13
2022-08-26T21:30:42.210Z,239.83
2022-08-26T21:40:46.955Z,240.47
2022-08-26T21:50:51.445Z,250.70
2022-08-26T22:00:56.231Z,246.57
2022-08-26T22:11:02.383Z,248.27
2022-08-26T22:21:11.081Z,254.67
2022-08-26T22:31:15.444Z,238.83
2022-08-26T22:41:20.893Z,257.33
2022-08-26T22:51:24.613Z,245.83
2022-08-26T23:01:29.547Z,247.30
2022-08-26T23:11:33.394Z,261.50
2022-08-26T23:21:38.477Z,250.23
2022-08-26T23:31:43.790Z,262.97
2022-08-26T23:41:48.485Z,251.83
2022-08-26T23:52:09.606Z,249.67
